Time;durP1;ratioP1;P1;durP2;ratioP2;P2;SDS_P1;SDS_P2;PMS_P1;PMS_P2;Temp;Humidity;BMP_temperature;BMP_pressure;BME280_temperature;BME280_humidity;BME280_pressure;Samples;Min_cycle;Max_cycle;Signal;HPM_P1;HPM_P2
2023/01/26 00:00:58;;;;;;;98.20;32.17;;;1.40;99.90;;;;;;5074065;28;20255;-68
2023/01/26 00:03:25;;;;;;;96.97;32.17;;;1.40;99.90;;;;;;5056371;28;20180;-67
2023/01/26 00:05:50;;;;;;;86.07;31.20;;;1.40;99.90;;;;;;5074162;28;20269;-67
2023/01/26 00:08:16;;;;;;;94.33;32.97;;;1.40;99.90;;;;;;5074145;28;20173;-67
2023/01/26 00:10:49;;;;;;;89.17;32.63;;;1.40;99.90;;;;;;5074207;28;20604;-67
2023/01/26 00:13:15;;;;;;;94.10;32.90;;;1.30;99.90;;;;;;5073924;28;20184;-67
2023/01/26 00:15:41;;;;;;;93.63;32.70;;;1.40;99.90;;;;;;5073649;28;20204;-67
2023/01/26 00:18:08;;;;;;;97.53;33.33;;;1.40;99.90;;;;;;5073885;28;20176;-67
2023/01/26 00:20:34;;;;;;;93.80;32.77;;;1.40;99.90;;;;;;5073854;28;20164;-66
2023/01/26 00:22:59;;;;;;;94.00;32.57;;;1.50;99.90;;;;;;5073918;28;20177;-67
2023/01/26 00:25:25;;;;;;;92.77;34.03;;;1.40;99.90;;;;;;5073710;28;20298;-67
2023/01/26 00:27:51;;;;;;;98.53;32.63;;;1.40;99.90;;;;;;5073705;28;20165;-67
2023/01/26 00:30:16;;;;;;;94.73;32.77;;;1.40;99.90;;;;;;5073355;28;20657;-66
2023/01/26 00:32:42;;;;;;;91.97;32.57;;;1.40;99.90;;;;;;5073901;28;20164;-67
2023/01/26 00:35:08;;;;;;;95.17;31.63;;;1.40;99.90;;;;;;5073823;28;20176;-67
2023/01/26 00:37:34;;;;;;;90.83;33.53;;;1.40;99.90;;;;;;5072801;28;20164;-67
2023/01/26 00:39:59;;;;;;;93.40;32.07;;;1.40;99.90;;;;;;5073551;28;20652;-67
2023/01/26 00:42:25;;;;;;;92.33;31.00;;;1.30;99.90;;;;;;5073479;28;20188;-67
2023/01/26 00:44:51;;;;;;;87.53;31.47;;;1.30;99.90;;;;;;5073012;28;20223;-67
2023/01/26 00:47:17;;;;;;;100.57;33.87;;;1.30;99.90;;;;;;5073681;28;20570;-67
2023/01/26 00:49:43;;;;;;;97.40;33.27;;;1.40;99.90;;;;;;5073499;28;20169;-67
2023/01/26 00:52:13;;;;;;;98.63;33.17;;;1.50;99.90;;;;;;5073347;28;20274;-67
2023/01/26 00:54:38;;;;;;;95.00;32.87;;;1.50;99.90;;;;;;5073379;28;20632;-67
2023/01/26 00:57:04;;;;;;;93.10;33.10;;;1.50;99.90;;;;;;5073405;28;20252;-67
2023/01/26 00:59:31;;;;;;;84.67;31.33;;;1.60;99.90;;;;;;5072905;28;20259;-67
2023/01/26 01:01:58;;;;;;;87.07;31.67;;;1.60;99.90;;;;;;5073440;28;20160;-67
2023/01/26 01:04:24;;;;;;;97.10;36.20;;;1.60;99.90;;;;;;5073251;28;20262;-67
2023/01/26 01:06:50;;;;;;;85.50;32.10;;;1.60;99.90;;;;;;5055353;28;20255;-67
2023/01/26 01:09:16;;;;;;;94.13;34.47;;;1.50;99.90;;;;;;5072989;28;20173;-66
2023/01/26 01:11:42;;;;;;;94.10;32.70;;;1.60;99.90;;;;;;5073202;28;20267;-67
2023/01/26 01:14:09;;;;;;;99.17;35.20;;;1.60;99.90;;;;;;5072851;28;20208;-67
2023/01/26 01:16:34;;;;;;;101.87;35.87;;;1.50;99.90;;;;;;5073110;28;20689;-67
2023/01/26 01:19:00;;;;;;;96.20;34.27;;;1.50;99.90;;;;;;5073153;28;20267;-67
2023/01/26 01:21:26;;;;;;;98.07;35.70;;;1.50;99.90;;;;;;5073107;28;20275;-67
2023/01/26 01:23:52;;;;;;;102.83;33.47;;;1.50;99.90;;;;;;5072905;28;20172;-67
2023/01/26 01:26:17;;;;;;;97.20;34.30;;;1.50;99.90;;;;;;5073092;28;20624;-67
2023/01/26 01:28:43;;;;;;;101.27;35.53;;;1.60;99.90;;;;;;5072766;28;20648;-67
2023/01/26 01:31:14;;;;;;;98.33;35.13;;;1.60;99.90;;;;;;5072897;28;20184;-67
2023/01/26 01:33:40;;;;;;;96.43;33.50;;;1.70;99.90;;;;;;5073113;28;20215;-67
2023/01/26 01:36:09;;;;;;;97.43;33.87;;;1.60;99.90;;;;;;5072988;28;20168;-67
2023/01/26 01:38:35;;;;;;;95.33;35.47;;;1.70;99.90;;;;;;5072877;28;20196;-67
2023/01/26 01:41:01;;;;;;;102.47;35.17;;;1.70;99.90;;;;;;5072905;28;20633;-67
2023/01/26 01:43:27;;;;;;;89.43;33.10;;;1.80;99.90;;;;;;5072508;28;20236;-67
2023/01/26 01:45:54;;;;;;;104.13;35.20;;;1.80;99.90;;;;;;5072693;28;20307;-67
2023/01/26 01:48:47;;;;;;;93.03;33.47;;;1.80;99.90;;;;;;5073016;28;20168;-67
2023/01/26 01:51:18;;;;;;;94.17;34.00;;;1.80;99.90;;;;;;5077056;28;20243;-68
2023/01/26 01:53:48;;;;;;;99.37;33.77;;;1.70;99.90;;;;;;5056733;28;20208;-67
2023/01/26 01:56:22;;;;;;;102.40;36.00;;;1.70;99.90;;;;;;5056385;28;20257;-67
2023/01/26 01:58:53;;;;;;;108.07;36.83;;;1.70;99.90;;;;;;5056638;28;20169;-66
2023/01/26 02:01:19;;;;;;;107.73;41.17;;;1.80;99.90;;;;;;5056296;28;20170;-66
2023/01/26 02:03:47;;;;;;;96.70;34.47;;;1.90;99.90;;;;;;5056448;28;20248;-66
2023/01/26 02:06:17;;;;;;;102.40;36.53;;;1.90;99.90;;;;;;5056597;28;20227;-67
2023/01/26 02:08:52;;;;;;;100.00;35.53;;;1.90;99.90;;;;;;5056352;28;20173;-67
2023/01/26 02:11:53;;;;;;;102.57;35.77;;;1.90;99.90;;;;;;5056013;28;20175;-67
2023/01/26 02:14:19;;;;;;;101.23;34.97;;;1.90;99.90;;;;;;4956265;29;20674;-67
2023/01/26 02:16:44;;;;;;;102.67;36.00;;;1.90;99.90;;;;;;4956171;29;20268;-67
2023/01/26 02:19:24;;;;;;;98.60;34.63;;;1.90;99.90;;;;;;4956096;28;20267;-66
2023/01/26 02:21:52;;;;;;;91.27;33.37;;;2.00;99.90;;;;;;4956002;29;20195;-66
2023/01/26 02:24:31;;;;;;;96.53;35.00;;;2.00;99.90;;;;;;4955787;29;20212;-65
2023/01/26 02:26:56;;;;;;;94.50;33.50;;;2.00;99.90;;;;;;4955689;29;20168;-66
2023/01/26 02:29:22;;;;;;;87.87;33.07;;;2.00;99.90;;;;;;4955950;28;20188;-66
2023/01/26 02:31:47;;;;;;;92.97;32.90;;;1.90;99.90;;;;;;4955812;29;20269;-67
2023/01/26 02:34:13;;;;;;;87.30;32.03;;;2.00;99.90;;;;;;4955639;28;20184;-67
2023/01/26 02:36:39;;;;;;;93.83;34.23;;;1.90;99.90;;;;;;4939564;29;20173;-65
2023/01/26 02:39:49;;;;;;;88.43;33.07;;;1.90;99.90;;;;;;4955835;29;20552;-67
2023/01/26 02:44:59;;;;;;;84.03;31.23;;;2.10;99.90;;;;;;4955576;29;20219;-68
2023/01/26 02:47:24;;;;;;;86.47;31.37;;;2.00;99.90;;;;;;4969776;28;20269;-67
2023/01/26 02:49:50;;;;;;;85.37;31.97;;;2.00;99.90;;;;;;5055571;28;20238;-67
2023/01/26 02:52:18;;;;;;;87.87;32.80;;;2.00;99.90;;;;;;5063271;28;20224;-68
2023/01/26 02:57:29;;;;;;;83.20;31.40;;;2.10;99.90;;;;;;5075801;28;20214;-69
2023/01/26 02:59:54;;;;;;;86.77;31.60;;;2.20;99.90;;;;;;5074911;28;20176;-69
2023/01/26 03:02:20;;;;;;;84.67;32.30;;;2.30;99.90;;;;;;5074999;28;20268;-68
2023/01/26 03:04:46;;;;;;;88.93;32.80;;;2.30;99.90;;;;;;5075325;28;20212;-69
2023/01/26 03:07:11;;;;;;;85.80;32.40;;;2.40;99.90;;;;;;5075530;28;20161;-69
2023/01/26 03:09:37;;;;;;;82.63;32.80;;;2.20;99.90;;;;;;5074974;28;20625;-69
2023/01/26 03:12:03;;;;;;;77.57;31.33;;;2.30;99.90;;;;;;5075012;28;20192;-68
2023/01/26 03:14:29;;;;;;;89.03;33.97;;;2.30;99.90;;;;;;5075183;28;20672;-69
2023/01/26 03:16:55;;;;;;;81.60;32.30;;;2.30;99.90;;;;;;5075187;28;20176;-69
2023/01/26 03:27:43;;;;;;;92.03;33.57;;;2.30;99.90;;;;;;5075052;28;20179;-68
2023/01/26 03:30:09;;;;;;;89.37;31.83;;;2.20;99.90;;;;;;5075069;28;20173;-69
2023/01/26 03:32:35;;;;;;;82.83;32.03;;;2.00;99.90;;;;;;5074797;28;20648;-69
2023/01/26 03:35:00;;;;;;;90.63;34.77;;;2.10;99.90;;;;;;5074831;28;20202;-68
2023/01/26 03:37:26;;;;;;;81.27;31.27;;;2.10;99.90;;;;;;5075089;28;20176;-69
2023/01/26 03:56:21;;;;;;;81.67;31.47;;;2.00;99.90;;;;;;5074720;28;20267;-69
2023/01/26 03:58:52;;;;;;;78.47;29.20;;;2.10;99.90;;;;;;5074707;28;20184;-69
2023/01/26 04:01:20;;;;;;;77.87;28.80;;;2.10;99.90;;;;;;5074409;28;20679;-69
2023/01/26 04:09:20;;;;;;;73.00;27.57;;;2.10;99.90;;;;;;5074506;28;20500;-69
2023/01/26 04:11:46;;;;;;;66.87;26.20;;;2.10;99.90;;;;;;5074114;28;20172;-69
2023/01/26 04:22:27;;;;;;;71.93;27.40;;;2.10;99.90;;;;;;5073716;28;20175;-70
2023/01/26 04:24:53;;;;;;;72.23;28.47;;;2.10;99.90;;;;;;5074333;28;20204;-68
2023/01/26 04:27:19;;;;;;;69.43;27.57;;;2.00;99.90;;;;;;5074832;28;20215;-68
2023/01/26 04:29:44;;;;;;;69.73;27.27;;;2.00;99.90;;;;;;5056591;28;20200;-67
2023/01/26 04:32:10;;;;;;;69.73;26.67;;;2.00;99.90;;;;;;5074030;28;20689;-69
2023/01/26 04:34:35;;;;;;;65.27;27.07;;;2.10;99.90;;;;;;5073791;28;20176;-69
2023/01/26 04:37:01;;;;;;;70.80;27.77;;;2.10;99.90;;;;;;5055518;28;20624;-68
2023/01/26 04:39:26;;;;;;;68.37;28.43;;;2.30;99.90;;;;;;5073375;28;20176;-68
2023/01/26 04:41:52;;;;;;;73.07;26.80;;;2.30;99.90;;;;;;5073389;28;20192;-68
2023/01/26 04:44:18;;;;;;;74.13;30.07;;;2.30;99.90;;;;;;5073425;28;20289;-69
2023/01/26 04:46:44;;;;;;;61.67;24.60;;;2.20;99.90;;;;;;5073380;28;20184;-68
2023/01/26 04:49:10;;;;;;;63.10;24.47;;;2.20;99.90;;;;;;5073630;28;20184;-70
2023/01/26 04:51:36;;;;;;;51.90;23.23;;;2.10;99.90;;;;;;5073083;28;20175;-69
2023/01/26 04:54:01;;;;;;;63.00;25.87;;;2.10;99.90;;;;;;5073414;28;20209;-69
2023/01/26 04:56:33;;;;;;;59.93;24.73;;;2.00;99.90;;;;;;5073292;28;20169;-69
2023/01/26 04:59:01;;;;;;;63.50;26.17;;;2.00;99.90;;;;;;5073400;28;20681;-69
2023/01/26 05:01:27;;;;;;;63.13;25.00;;;2.00;99.90;;;;;;5073351;28;20632;-69
2023/01/26 05:03:53;;;;;;;63.87;25.97;;;2.00;99.90;;;;;;5073027;28;20173;-69
2023/01/26 05:06:19;;;;;;;68.10;26.10;;;2.00;99.90;;;;;;5072779;28;20172;-69
2023/01/26 05:08:45;;;;;;;71.20;26.73;;;2.00;99.90;;;;;;5073025;28;20293;-69
2023/01/26 05:11:11;;;;;;;65.97;25.70;;;2.10;99.90;;;;;;5073062;28;20225;-67
2023/01/26 05:13:37;;;;;;;67.60;26.60;;;2.20;99.90;;;;;;5073332;28;20161;-69
2023/01/26 05:16:03;;;;;;;69.30;26.90;;;2.10;99.90;;;;;;5073245;28;20188;-68
2023/01/26 05:18:30;;;;;;;68.77;25.23;;;2.20;99.90;;;;;;5055166;28;20196;-70
2023/01/26 05:20:55;;;;;;;64.33;25.30;;;2.20;99.90;;;;;;5054811;28;20168;-68
2023/01/26 05:23:22;;;;;;;63.47;25.03;;;2.20;99.90;;;;;;5072960;28;20176;-69
2023/01/26 05:25:47;;;;;;;60.80;24.13;;;2.20;99.90;;;;;;5077269;28;20606;-69
2023/01/26 05:28:13;;;;;;;59.53;23.57;;;2.20;99.90;;;;;;5077360;28;20168;-69
2023/01/26 05:30:39;;;;;;;63.70;24.20;;;2.20;99.90;;;;;;5076947;28;20214;-69
2023/01/26 05:33:07;;;;;;;60.77;25.47;;;2.10;99.90;;;;;;5077418;28;20172;-69
2023/01/26 05:35:33;;;;;;;61.30;23.87;;;2.20;99.90;;;;;;5076627;28;20168;-69
2023/01/26 05:37:59;;;;;;;65.23;25.03;;;2.20;99.90;;;;;;5076905;28;20204;-69
2023/01/26 05:40:25;;;;;;;65.97;25.20;;;2.20;99.90;;;;;;5077205;28;20632;-69
2023/01/26 05:42:51;;;;;;;66.40;26.10;;;2.30;99.90;;;;;;5076888;28;20197;-69
2023/01/26 05:45:18;;;;;;;65.40;26.10;;;2.40;99.90;;;;;;5076637;28;20211;-68
2023/01/26 05:47:44;;;;;;;63.17;25.47;;;2.40;99.90;;;;;;5076458;28;20165;-68
2023/01/26 05:50:11;;;;;;;61.77;24.63;;;2.50;99.90;;;;;;5076662;28;20173;-69
2023/01/26 05:52:37;;;;;;;58.93;23.50;;;2.50;99.90;;;;;;5076124;28;20308;-68
2023/01/26 05:55:04;;;;;;;62.20;22.87;;;2.50;99.90;;;;;;5076593;28;20259;-68
2023/01/26 05:57:30;;;;;;;51.77;21.57;;;2.50;99.90;;;;;;5076604;28;20259;-68
2023/01/26 05:59:56;;;;;;;58.40;23.10;;;2.60;99.90;;;;;;5076454;28;20666;-68
2023/01/26 06:02:22;;;;;;;57.73;23.87;;;2.60;99.90;;;;;;5075955;28;20286;-69
2023/01/26 06:04:48;;;;;;;55.43;22.27;;;2.70;99.90;;;;;;5076287;28;20208;-68
2023/01/26 06:07:13;;;;;;;56.60;22.90;;;2.60;99.90;;;;;;5076441;28;20175;-69
2023/01/26 06:09:40;;;;;;;45.47;19.70;;;2.50;99.90;;;;;;5076226;28;20173;-68
2023/01/26 06:12:11;;;;;;;46.97;18.97;;;2.40;99.90;;;;;;5076141;28;20625;-69
2023/01/26 06:14:37;;;;;;;48.37;20.83;;;2.50;99.90;;;;;;5076204;28;20187;-68
2023/01/26 06:17:03;;;;;;;51.37;22.63;;;2.60;99.90;;;;;;5075812;28;20173;-68
2023/01/26 06:19:28;;;;;;;49.47;20.70;;;2.60;99.90;;;;;;5075529;28;20180;-69
2023/01/26 06:21:54;;;;;;;51.37;22.03;;;2.40;99.90;;;;;;5076115;28;20207;-69
2023/01/26 06:24:19;;;;;;;51.63;20.80;;;2.30;99.90;;;;;;5075756;28;20244;-69
2023/01/26 06:26:48;;;;;;;55.00;20.20;;;2.30;99.90;;;;;;5075810;28;20172;-68
2023/01/26 06:29:14;;;;;;;48.97;21.33;;;2.30;99.90;;;;;;5075694;28;20633;-68
2023/01/26 06:31:40;;;;;;;49.23;20.07;;;2.20;99.90;;;;;;5075527;28;20165;-68
2023/01/26 06:34:06;;;;;;;47.40;20.77;;;2.30;99.90;;;;;;5075651;28;20648;-68
2023/01/26 06:36:32;;;;;;;53.57;20.80;;;2.50;99.90;;;;;;5075330;28;20173;-69
2023/01/26 06:38:57;;;;;;;49.00;21.40;;;2.50;99.90;;;;;;5076144;28;20219;-69
2023/01/26 06:41:23;;;;;;;44.53;19.23;;;2.60;99.90;;;;;;5075343;28;20222;-69
2023/01/26 06:43:49;;;;;;;41.57;19.03;;;2.70;99.90;;;;;;5075607;28;20164;-69
2023/01/26 06:46:15;;;;;;;42.73;19.50;;;2.60;99.90;;;;;;5074810;28;20211;-69
2023/01/26 06:48:41;;;;;;;44.27;19.53;;;2.70;99.90;;;;;;5075372;28;20272;-68
2023/01/26 06:51:19;;;;;;;47.53;19.60;;;2.60;99.90;;;;;;5075310;28;20247;-68
2023/01/26 06:53:54;;;;;;;44.40;19.13;;;2.50;99.90;;;;;;5055078;28;20193;-69
2023/01/26 06:56:21;;;;;;;43.10;18.37;;;2.50;99.90;;;;;;5055683;28;20181;-68
2023/01/26 06:58:46;;;;;;;43.53;19.23;;;2.60;99.90;;;;;;5037359;28;20188;-69
2023/01/26 07:01:16;;;;;;;43.23;18.70;;;2.60;99.90;;;;;;5054639;28;20208;-68
2023/01/26 07:03:42;;;;;;;45.70;20.17;;;2.70;99.90;;;;;;5055079;28;20174;-69
2023/01/26 07:06:11;;;;;;;40.30;17.53;;;2.60;99.90;;;;;;5054856;28;20536;-68
2023/01/26 07:08:36;;;;;;;37.83;17.50;;;2.70;99.90;;;;;;5054754;28;20215;-69
2023/01/26 07:11:02;;;;;;;42.13;18.20;;;2.70;99.90;;;;;;5054902;28;20199;-67
2023/01/26 07:13:28;;;;;;;38.13;17.47;;;2.70;99.90;;;;;;5055119;28;20259;-68
2023/01/26 07:16:11;;;;;;;40.00;18.37;;;2.80;99.90;;;;;;5054535;28;20184;-67
2023/01/26 07:18:37;;;;;;;39.37;17.67;;;2.90;99.90;;;;;;5054572;28;20172;-69
2023/01/26 07:21:05;;;;;;;38.93;18.07;;;2.80;99.90;;;;;;5054716;28;20517;-69
2023/01/26 07:23:30;;;;;;;43.60;18.73;;;2.90;99.90;;;;;;5054913;28;20169;-69
2023/01/26 07:25:56;;;;;;;40.63;17.70;;;2.80;99.90;;;;;;5054358;28;20204;-69
2023/01/26 07:28:22;;;;;;;38.83;17.77;;;3.00;99.90;;;;;;5054089;28;20626;-69
2023/01/26 07:30:48;;;;;;;41.70;18.27;;;3.10;99.90;;;;;;5054244;28;20170;-69
2023/01/26 07:33:14;;;;;;;40.07;18.27;;;3.20;99.90;;;;;;5036431;28;20205;-70
2023/01/26 07:35:39;;;;;;;38.17;17.83;;;2.90;99.90;;;;;;5054073;28;20166;-69
2023/01/26 07:38:05;;;;;;;42.33;18.10;;;2.90;99.90;;;;;;5054363;28;20645;-69
2023/01/26 07:40:31;;;;;;;43.57;17.87;;;2.80;99.90;;;;;;5053923;28;20180;-69
2023/01/26 07:42:59;;;;;;;35.57;16.63;;;2.90;99.90;;;;;;5054320;28;20194;-69
2023/01/26 07:45:25;;;;;;;37.17;16.87;;;3.10;99.90;;;;;;5053827;28;20660;-69
2023/01/26 07:47:53;;;;;;;40.03;17.97;;;3.10;99.90;;;;;;5053694;28;20165;-69
2023/01/26 07:50:20;;;;;;;43.57;17.77;;;3.00;99.90;;;;;;5054527;28;20238;-68
2023/01/26 07:52:51;;;;;;;38.97;17.63;;;3.10;99.90;;;;;;5066158;28;20576;-70
2023/01/26 07:55:19;;;;;;;44.43;17.97;;;3.20;99.90;;;;;;5074091;28;20259;-69
2023/01/26 07:57:48;;;;;;;46.80;18.10;;;3.20;99.90;;;;;;5056174;28;20249;-69
2023/01/26 08:00:16;;;;;;;41.23;18.37;;;3.30;99.90;;;;;;5073384;28;20168;-70
2023/01/26 08:02:41;;;;;;;41.90;18.70;;;3.30;99.90;;;;;;5090577;28;20180;-69
2023/01/26 08:05:08;;;;;;;42.83;17.80;;;3.40;99.90;;;;;;5076707;28;20204;-70
2023/01/26 08:07:33;;;;;;;40.03;16.90;;;3.40;99.90;;;;;;5073891;28;20255;-68
2023/01/26 08:09:59;;;;;;;41.27;18.10;;;3.40;99.90;;;;;;5073615;28;20251;-69
2023/01/26 08:12:25;;;;;;;43.57;19.07;;;3.40;99.90;;;;;;5073768;28;20175;-69
2023/01/26 08:14:50;;;;;;;45.63;18.43;;;3.50;99.90;;;;;;5073394;28;20168;-69
2023/01/26 08:17:16;;;;;;;41.93;18.27;;;3.50;99.90;;;;;;5073613;28;20169;-69
2023/01/26 08:19:43;;;;;;;41.30;18.30;;;3.60;99.90;;;;;;5073903;28;20184;-69
2023/01/26 08:22:09;;;;;;;38.33;18.43;;;3.50;99.90;;;;;;5061676;28;20179;-69
2023/01/26 08:24:34;;;;;;;42.57;18.97;;;3.60;99.90;;;;;;5057547;28;20292;-70
2023/01/26 08:27:00;;;;;;;43.70;19.50;;;3.70;99.90;;;;;;5089720;28;20170;-69
2023/01/26 08:29:25;;;;;;;44.00;19.03;;;3.70;99.90;;;;;;5075227;28;20183;-70
2023/01/26 08:31:52;;;;;;;47.60;19.47;;;3.70;99.90;;;;;;5093046;28;20176;-70
2023/01/26 08:34:18;;;;;;;46.60;18.63;;;3.80;99.90;;;;;;5093359;28;20164;-69
2023/01/26 08:36:43;;;;;;;42.10;18.47;;;3.80;99.90;;;;;;5093277;28;20262;-70
2023/01/26 08:39:09;;;;;;;42.30;18.87;;;3.80;99.90;;;;;;5092665;28;20527;-70
2023/01/26 08:41:35;;;;;;;47.03;20.60;;;3.80;99.90;;;;;;5092979;28;20195;-68
2023/01/26 08:44:00;;;;;;;46.00;18.43;;;3.80;99.90;;;;;;5074973;28;20164;-69
2023/01/26 08:46:26;;;;;;;37.97;17.93;;;3.90;99.90;;;;;;5093222;28;20208;-69
2023/01/26 08:48:51;;;;;;;42.93;18.70;;;3.90;99.90;;;;;;5089007;28;20252;-69
2023/01/26 08:51:17;;;;;;;46.93;19.10;;;3.90;99.90;;;;;;5087567;28;20543;-70
2023/01/26 08:53:43;;;;;;;41.90;18.63;;;3.90;99.90;;;;;;5088458;28;20646;-69
2023/01/26 08:56:11;;;;;;;40.27;18.20;;;3.90;99.90;;;;;;5093306;28;20170;-69
2023/01/26 08:58:37;;;;;;;46.47;20.33;;;3.90;99.90;;;;;;5073595;28;20528;-69
2023/01/26 09:01:09;;;;;;;44.20;19.00;;;4.00;99.90;;;;;;5093206;28;20193;-70
2023/01/26 09:03:35;;;;;;;45.87;19.20;;;4.00;99.90;;;;;;5092816;28;20632;-70
2023/01/26 09:06:02;;;;;;;39.47;18.47;;;4.00;99.90;;;;;;5093363;28;20214;-68
2023/01/26 09:08:29;;;;;;;45.00;19.80;;;4.20;99.90;;;;;;5093207;28;20175;-70
2023/01/26 09:10:55;;;;;;;43.97;19.33;;;4.30;99.90;;;;;;5092517;28;20168;-69
2023/01/26 09:13:21;;;;;;;36.73;18.17;;;4.40;99.90;;;;;;5070490;28;20257;-70
2023/01/26 09:15:46;;;;;;;38.70;19.43;;;4.30;99.90;;;;;;5054605;28;20185;-68
2023/01/26 09:18:12;;;;;;;42.10;18.83;;;4.40;99.90;;;;;;5062087;28;20185;-70
2023/01/26 09:20:38;;;;;;;35.63;17.77;;;4.50;99.90;;;;;;5054645;28;20287;-70
2023/01/26 09:23:04;;;;;;;37.67;16.97;;;4.60;99.90;;;;;;5072622;28;20172;-70
2023/01/26 09:25:29;;;;;;;34.77;17.97;;;4.60;99.90;;;;;;5072462;28;20691;-68
2023/01/26 09:27:55;;;;;;;34.70;17.10;;;4.40;99.90;;;;;;5072881;28;20229;-71
2023/01/26 09:30:23;;;;;;;35.53;17.80;;;4.40;99.90;;;;;;5054362;28;20180;-70
2023/01/26 09:32:49;;;;;;;36.17;17.60;;;4.40;99.90;;;;;;5072598;28;20177;-70
2023/01/26 09:35:15;;;;;;;35.10;17.03;;;4.40;99.90;;;;;;5072060;28;20686;-70
2023/01/26 09:37:42;;;;;;;34.23;17.97;;;4.50;99.90;;;;;;5072836;28;20251;-70
2023/01/26 09:40:18;;;;;;;37.73;18.83;;;4.60;99.90;;;;;;5072228;28;20183;-70
2023/01/26 09:42:59;;;;;;;26.67;14.47;;;4.70;99.90;;;;;;5072778;28;20196;-70
2023/01/26 09:45:51;;;;;;;32.33;15.50;;;4.80;99.90;;;;;;5072618;28;20212;-70
2023/01/26 09:48:34;;;;;;;25.63;13.20;;;4.90;99.90;;;;;;5072444;28;20157;-69
2023/01/26 09:51:06;;;;;;;26.43;13.50;;;4.80;99.90;;;;;;5067015;28;20177;-69
2023/01/26 09:53:55;;;;;;;23.70;12.93;;;4.80;99.90;;;;;;5060957;28;20282;-69
2023/01/26 09:56:27;;;;;;;25.13;14.03;;;4.80;99.90;;;;;;5052088;28;20562;-69
2023/01/26 09:59:06;;;;;;;24.97;14.13;;;4.80;99.90;;;;;;5052348;28;20169;-69
2023/01/26 10:01:57;;;;;;;25.23;14.37;;;4.90;99.90;;;;;;5051949;28;20173;-69
2023/01/26 10:04:36;;;;;;;23.73;14.27;;;4.80;99.90;;;;;;5039098;28;20351;-70
2023/01/26 10:07:07;;;;;;;25.00;15.03;;;4.90;99.90;;;;;;5052198;28;20255;-69
2023/01/26 10:09:36;;;;;;;23.97;13.90;;;4.90;99.90;;;;;;5052456;28;20189;-70
2023/01/26 10:12:23;;;;;;;24.97;13.83;;;4.90;99.90;;;;;;5065037;28;20212;-69
2023/01/26 10:14:52;;;;;;;24.27;13.57;;;4.90;99.90;;;;;;5076178;28;20191;-69
2023/01/26 10:17:29;;;;;;;32.90;15.10;;;4.90;99.90;;;;;;5076061;28;20709;-70
2023/01/26 10:20:06;;;;;;;27.80;15.23;;;4.90;99.90;;;;;;5069099;28;20184;-70
2023/01/26 10:22:45;;;;;;;28.20;15.07;;;4.90;99.90;;;;;;5058412;28;20259;-70
2023/01/26 10:25:18;;;;;;;24.60;14.47;;;4.80;99.90;;;;;;5075194;28;20294;-71
2023/01/26 10:27:47;;;;;;;28.73;14.80;;;4.80;99.90;;;;;;5075793;28;20176;-69
2023/01/26 10:30:15;;;;;;;35.83;16.10;;;4.80;99.90;;;;;;5075886;28;20172;-70
2023/01/26 10:32:43;;;;;;;33.83;15.83;;;4.60;99.90;;;;;;5075541;28;20179;-70
2023/01/26 10:35:22;;;;;;;33.83;16.37;;;4.70;99.90;;;;;;5075867;28;20173;-71
2023/01/26 10:37:51;;;;;;;32.03;15.37;;;4.50;99.90;;;;;;5075395;28;20174;-69
2023/01/26 10:40:17;;;;;;;31.93;16.07;;;4.60;99.90;;;;;;5075469;28;20187;-69
2023/01/26 10:42:54;;;;;;;34.97;17.77;;;4.80;99.90;;;;;;5075415;28;20702;-69
2023/01/26 10:45:32;;;;;;;33.73;17.10;;;4.90;99.90;;;;;;5078059;28;20670;-70
2023/01/26 10:48:17;;;;;;;34.67;17.13;;;5.10;99.90;;;;;;5079897;28;20168;-68
2023/01/26 10:50:43;;;;;;;38.33;16.93;;;5.10;99.90;;;;;;5075624;28;20171;-70
2023/01/26 10:53:28;;;;;;;39.37;17.20;;;5.20;99.90;;;;;;5074872;28;20225;-69
2023/01/26 10:56:03;;;;;;;40.07;16.43;;;5.20;99.90;;;;;;5075127;28;20168;-69
2023/01/26 10:58:35;;;;;;;39.73;18.37;;;5.10;99.90;;;;;;5074661;28;20194;-69
2023/01/26 11:01:01;;;;;;;39.53;18.20;;;5.20;99.90;;;;;;5075113;28;20165;-68
2023/01/26 11:03:27;;;;;;;41.23;19.00;;;5.20;99.90;;;;;;5075385;28;20506;-70
2023/01/26 11:06:15;;;;;;;44.43;18.70;;;4.90;99.90;;;;;;5072513;28;20212;-68
2023/01/26 11:08:42;;;;;;;44.20;20.37;;;4.90;99.90;;;;;;5063512;28;20448;-69
2023/01/26 11:11:28;;;;;;;52.00;20.87;;;4.90;99.90;;;;;;5074123;28;20173;-70
2023/01/26 11:14:16;;;;;;;45.70;20.40;;;4.90;99.90;;;;;;5066576;28;20664;-68
2023/01/26 11:16:49;;;;;;;47.37;20.53;;;5.00;99.90;;;;;;5036652;28;20252;-68
2023/01/26 11:19:36;;;;;;;43.23;20.90;;;5.00;99.90;;;;;;5054264;28;20162;-70
2023/01/26 11:22:06;;;;;;;42.53;19.70;;;5.20;99.90;;;;;;5053026;28;20170;-70
2023/01/26 11:25:01;;;;;;;43.77;19.63;;;5.30;99.90;;;;;;5059874;28;20294;-70
2023/01/26 11:27:41;;;;;;;49.50;20.57;;;5.30;99.90;;;;;;5076781;28;20176;-70
2023/01/26 11:30:51;;;;;;;49.23;21.10;;;5.40;99.90;;;;;;5094201;28;20167;-70
2023/01/26 11:33:50;;;;;;;45.20;20.90;;;5.30;99.90;;;;;;4992876;28;20674;-70
2023/01/26 11:36:30;;;;;;;42.73;18.90;;;5.20;99.90;;;;;;5093751;28;20268;-69
2023/01/26 11:39:18;;;;;;;41.60;19.73;;;5.20;99.90;;;;;;5094383;28;20168;-70
2023/01/26 11:41:57;;;;;;;48.50;20.47;;;5.20;99.90;;;;;;5094202;28;20184;-70
2023/01/26 11:44:59;;;;;;;54.83;21.87;;;5.20;99.90;;;;;;5076176;28;20224;-69
2023/01/26 11:47:31;;;;;;;44.10;20.73;;;5.50;99.90;;;;;;5094258;28;20179;-70
2023/01/26 11:50:23;;;;;;;42.37;19.67;;;5.60;99.90;;;;;;5093710;28;20282;-70
2023/01/26 11:53:25;;;;;;;48.90;21.23;;;5.60;99.90;;;;;;5093996;28;20307;-70
2023/01/26 11:56:07;;;;;;;49.73;21.30;;;5.60;99.90;;;;;;5093966;28;20175;-70
2023/01/26 11:58:45;;;;;;;42.87;20.10;;;5.60;99.90;;;;;;5093790;28;20168;-70
2023/01/26 12:01:40;;;;;;;51.33;19.73;;;5.40;99.90;;;;;;5093500;28;20172;-70
2023/01/26 12:04:17;;;;;;;45.33;19.23;;;5.40;99.90;;;;;;5094212;28;20172;-70
2023/01/26 12:06:46;;;;;;;49.90;20.33;;;5.30;99.90;;;;;;5080446;28;20242;-70
2023/01/26 12:09:21;;;;;;;46.50;20.93;;;5.20;99.90;;;;;;5058686;28;20181;-70
2023/01/26 12:12:08;;;;;;;49.07;21.67;;;5.20;99.90;;;;;;5053259;28;20518;-69
2023/01/26 12:15:21;;;;;;;56.97;23.37;;;5.30;99.90;;;;;;5052159;28;20180;-70
2023/01/26 12:18:05;;;;;;;54.97;23.10;;;5.40;99.90;;;;;;4971115;28;20183;-70
2023/01/26 12:20:52;;;;;;;63.27;26.07;;;5.50;99.90;;;;;;4971355;28;20223;-71
2023/01/26 12:23:20;;;;;;;65.10;27.07;;;5.80;99.90;;;;;;5021308;28;20181;-70
2023/01/26 12:25:51;;;;;;;58.07;24.67;;;5.80;99.90;;;;;;5070258;28;20208;-70
2023/01/26 12:28:37;;;;;;;61.53;24.07;;;6.00;99.90;;;;;;5073019;28;20257;-70
2023/01/26 12:31:28;;;;;;;55.63;22.40;;;6.10;99.90;;;;;;5072714;28;20172;-70
2023/01/26 12:33:55;;;;;;;63.27;22.27;;;6.10;99.90;;;;;;5060593;28;20184;-70
2023/01/26 12:36:48;;;;;;;57.43;23.17;;;6.30;99.90;;;;;;5055062;28;20659;-70
2023/01/26 12:39:35;;;;;;;50.17;20.27;;;6.70;99.90;;;;;;5054792;28;20185;-69
2023/01/26 12:42:19;;;;;;;53.97;20.50;;;6.90;99.90;;;;;;5072571;28;20231;-69
2023/01/26 12:44:58;;;;;;;46.73;16.80;;;7.10;99.90;;;;;;5064203;28;20296;-70
2023/01/26 12:47:27;;;;;;;45.63;17.00;;;7.20;99.90;;;;;;5072946;28;20173;-70
2023/01/26 12:49:59;;;;;;;44.33;16.73;;;7.30;99.90;;;;;;5076617;28;20655;-68
2023/01/26 12:52:40;;;;;;;37.60;15.67;;;7.50;99.90;;;;;;5070218;28;20220;-69
2023/01/26 12:55:18;;;;;;;42.87;16.10;;;7.60;99.90;;;;;;5065943;28;20360;-69
2023/01/26 12:57:53;;;;;;;28.10;11.30;;;7.90;99.90;;;;;;5055301;28;20204;-69
2023/01/26 13:00:20;;;;;;;32.10;12.23;;;8.00;99.90;;;;;;5063693;28;20263;-70
2023/01/26 13:02:51;;;;;;;39.83;11.20;;;8.20;99.90;;;;;;5059973;28;20185;-69
2023/01/26 13:05:30;;;;;;;31.43;11.37;;;8.10;99.90;;;;;;5064092;28;20681;-69
2023/01/26 13:07:56;;;;;;;29.80;10.13;;;8.10;99.90;;;;;;5071557;28;20247;-69
2023/01/26 13:10:28;;;;;;;24.50;8.83;;;7.90;99.90;;;;;;5054174;28;20588;-69
2023/01/26 13:13:19;;;;;;;28.57;9.13;;;7.90;99.90;;;;;;5057052;28;20652;-68
2023/01/26 13:15:45;;;;;;;26.43;9.40;;;7.90;99.90;;;;;;5062021;28;20629;-70
2023/01/26 13:18:47;;;;;;;24.30;8.07;;;8.00;99.90;;;;;;5055316;28;20184;-70
2023/01/26 13:21:24;;;;;;;26.13;8.40;;;8.30;99.90;;;;;;5052277;28;20176;-70
2023/01/26 13:23:50;;;;;;;24.23;8.97;;;8.20;99.90;;;;;;5056406;28;20181;-69
2023/01/26 13:26:31;;;;;;;22.87;8.07;;;8.50;99.90;;;;;;5071400;28;20663;-70
2023/01/26 13:29:31;;;;;;;22.00;6.73;;;8.60;99.90;;;;;;5055884;28;20198;-70
2023/01/26 13:32:09;;;;;;;20.63;6.17;;;8.70;99.90;;;;;;5058739;28;20303;-70
2023/01/26 13:34:41;;;;;;;26.27;6.27;;;8.80;99.90;;;;;;5069644;28;20205;-70
2023/01/26 13:37:15;;;;;;;19.13;5.10;;;8.90;98.00;;;;;;5054098;28;20184;-69